sensor_id;sensor_type;location;lat;lon;timestamp;pressure;altitude;pressure_sealevel;temperature;humidity
45523;BME280;31254;51.680;5.394;2024-02-23T00:00:32;98106.66;;;4.67;100.00
45523;BME280;31254;51.680;5.394;2024-02-23T00:03:27;98777.03;;;8.98;100.00
45523;BME280;31254;51.680;5.394;2024-02-23T00:06:33;98839.34;;;9.29;100.00
45523;BME280;31254;51.680;5.394;2024-02-23T00:09:22;98594.09;;;7.71;100.00
45523;BME280;31254;51.680;5.394;2024-02-23T00:12:03;98514.00;;;6.92;100.00
45523;BME280;31254;51.680;5.394;2024-02-23T00:14:47;98031.94;;;4.05;100.00
45523;BME280;31254;51.680;5.394;2024-02-23T00:17:33;98022.84;;;4.06;100.00
45523;BME280;31254;51.680;5.394;2024-02-23T00:20:20;97976.47;;;3.71;100.00
45523;BME280;31254;51.680;5.394;2024-02-23T00:23:47;98045.59;;;4.03;100.00
45523;BME280;31254;51.680;5.394;2024-02-23T00:26:44;97999.56;;;3.73;100.00
45523;BME280;31254;51.680;5.394;2024-02-23T00:29:26;98337.72;;;5.95;100.00
45523;BME280;31254;51.680;5.394;2024-02-23T00:32:32;98362.41;;;6.00;100.00
45523;BME280;31254;51.680;5.394;2024-02-23T00:35:28;98058.69;;;3.83;100.00
45523;BME280;31254;51.680;5.394;2024-02-23T00:37:58;98033.75;;;3.81;100.00
45523;BME280;31254;51.680;5.394;2024-02-23T00:40:30;98187.47;;;4.76;100.00
45523;BME280;31254;51.680;5.394;2024-02-23T00:43:04;98907.66;;;9.19;100.00
45523;BME280;31254;51.680;5.394;2024-02-23T00:48:35;98961.59;;;9.15;100.00
45523;BME280;31254;51.680;5.394;2024-02-23T00:51:18;97932.28;;;3.01;100.00
45523;BME280;31254;51.680;5.394;2024-02-23T00:54:24;97933.28;;;3.08;100.00
45523;BME280;31254;51.680;5.394;2024-02-23T00:56:58;98921.53;;;9.09;100.00
45523;BME280;31254;51.680;5.394;2024-02-23T00:59:45;97888.28;;;2.77;100.00
45523;BME280;31254;51.680;5.394;2024-02-23T01:02:32;98748.63;;;7.73;100.00
45523;BME280;31254;51.680;5.394;2024-02-23T01:05:14;98919.56;;;9.03;100.00
45523;BME280;31254;51.680;5.394;2024-02-23T01:07:42;97866.31;;;2.24;100.00
45523;BME280;31254;51.680;5.394;2024-02-23T01:10:11;98029.34;;;3.40;100.00
45523;BME280;31254;51.680;5.394;2024-02-23T01:12:42;98239.66;;;4.69;100.00
45523;BME280;31254;51.680;5.394;2024-02-23T01:15:17;98737.00;;;7.79;100.00
45523;BME280;31254;51.680;5.394;2024-02-23T01:17:51;98975.75;;;8.96;100.00
45523;BME280;31254;51.680;5.394;2024-02-23T01:20:26;98060.16;;;3.38;99.93
45523;BME280;31254;51.680;5.394;2024-02-23T01:23:10;98601.31;;;6.56;100.00
45523;BME280;31254;51.680;5.394;2024-02-23T01:25:37;98001.09;;;3.20;99.66
45523;BME280;31254;51.680;5.394;2024-02-23T01:28:06;98044.81;;;3.46;99.65
45523;BME280;31254;51.680;5.394;2024-02-23T01:30:33;98264.22;;;4.43;99.86
45523;BME280;31254;51.680;5.394;2024-02-23T01:33:08;98438.13;;;5.45;99.95
45523;BME280;31254;51.680;5.394;2024-02-23T01:35:38;98383.03;;;5.46;99.84
45523;BME280;31254;51.680;5.394;2024-02-23T01:38:09;98645.94;;;7.00;100.00
45523;BME280;31254;51.680;5.394;2024-02-23T01:40:43;98246.41;;;4.17;99.50
45523;BME280;31254;51.680;5.394;2024-02-23T01:43:18;98629.84;;;6.44;99.93
45523;BME280;31254;51.680;5.394;2024-02-23T01:45:50;98973.66;;;8.83;100.00
45523;BME280;31254;51.680;5.394;2024-02-23T01:48:17;98935.50;;;8.30;99.89
45523;BME280;31254;51.680;5.394;2024-02-23T01:50:45;98015.44;;;3.04;99.19
45523;BME280;31254;51.680;5.394;2024-02-23T01:53:14;98984.06;;;8.80;99.95
45523;BME280;31254;51.680;5.394;2024-02-23T01:55:41;98875.03;;;7.90;99.96
45523;BME280;31254;51.680;5.394;2024-02-23T01:58:13;98418.56;;;5.35;99.37
45523;BME280;31254;51.680;5.394;2024-02-23T02:00:48;98605.84;;;6.33;99.41
45523;BME280;31254;51.680;5.394;2024-02-23T02:03:23;98972.88;;;8.74;100.00
45523;BME280;31254;51.680;5.394;2024-02-23T02:05:50;98690.44;;;7.06;99.39
45523;BME280;31254;51.680;5.394;2024-02-23T02:08:19;98372.41;;;4.97;99.14
45523;BME280;31254;51.680;5.394;2024-02-23T02:10:50;98888.19;;;8.24;99.37
45523;BME280;31254;51.680;5.394;2024-02-23T02:13:18;97944.66;;;2.37;98.66
45523;BME280;31254;51.680;5.394;2024-02-23T02:15:44;98492.88;;;5.47;98.92
45523;BME280;31254;51.680;5.394;2024-02-23T02:18:20;97994.94;;;2.62;98.81
45523;BME280;31254;51.680;5.394;2024-02-23T02:21:00;99038.19;;;8.66;99.60
45523;BME280;31254;51.680;5.394;2024-02-23T02:23:27;98040.38;;;2.89;98.34
45523;BME280;31254;51.680;5.394;2024-02-23T02:25:55;98767.22;;;7.06;99.33
45523;BME280;31254;51.680;5.394;2024-02-23T02:28:30;98620.53;;;6.47;98.90
45523;BME280;31254;51.680;5.394;2024-02-23T02:30:59;98113.25;;;3.29;98.19
45523;BME280;31254;51.680;5.394;2024-02-23T02:33:26;99032.28;;;8.63;99.44
45523;BME280;31254;51.680;5.394;2024-02-23T02:36:01;99026.84;;;8.63;99.07
45523;BME280;31254;51.680;5.394;2024-02-23T02:38:39;99034.22;;;8.54;99.20
45523;BME280;31254;51.680;5.394;2024-02-23T02:41:08;98668.53;;;6.61;98.90
45523;BME280;31254;51.680;5.394;2024-02-23T02:43:47;98619.19;;;6.03;98.47
45523;BME280;31254;51.680;5.394;2024-02-23T02:46:16;98244.25;;;3.96;98.40
45523;BME280;31254;51.680;5.394;2024-02-23T02:48:51;98046.91;;;2.46;98.24
45523;BME280;31254;51.680;5.394;2024-02-23T02:51:23;98240.03;;;3.93;97.85
45523;BME280;31254;51.680;5.394;2024-02-23T02:53:57;98632.22;;;5.83;98.17
45523;BME280;31254;51.680;5.394;2024-02-23T02:56:28;99012.16;;;8.49;98.33
45523;BME280;31254;51.680;5.394;2024-02-23T02:58:59;98585.50;;;5.49;97.97
45523;BME280;31254;51.680;5.394;2024-02-23T03:01:28;98522.09;;;5.52;98.42
45523;BME280;31254;51.680;5.394;2024-02-23T03:04:03;99057.50;;;8.48;98.57
45523;BME280;31254;51.680;5.394;2024-02-23T03:06:31;98166.44;;;3.10;97.72
45523;BME280;31254;51.680;5.394;2024-02-23T03:08:58;97938.38;;;1.88;97.74
45523;BME280;31254;51.680;5.394;2024-02-23T03:11:35;98722.38;;;6.64;97.92
45523;BME280;31254;51.680;5.394;2024-02-23T03:14:08;98012.41;;;2.25;97.49
45523;BME280;31254;51.680;5.394;2024-02-23T03:16:39;98700.91;;;6.46;98.44
45523;BME280;31254;51.680;5.394;2024-02-23T03:19:05;98837.09;;;6.88;98.30
45523;BME280;31254;51.680;5.394;2024-02-23T03:21:34;98733.34;;;6.71;98.06
45523;BME280;31254;51.680;5.394;2024-02-23T03:24:05;99052.09;;;8.40;98.19
45523;BME280;31254;51.680;5.394;2024-02-23T03:26:34;98857.72;;;7.37;97.99
45523;BME280;31254;51.680;5.394;2024-02-23T03:29:01;98375.25;;;4.39;97.50
45523;BME280;31254;51.680;5.394;2024-02-23T03:31:27;98319.63;;;3.97;97.82
45523;BME280;31254;51.680;5.394;2024-02-23T03:33:54;98506.19;;;4.93;97.79
45523;BME280;31254;51.680;5.394;2024-02-23T03:36:21;98769.56;;;6.70;97.58
45523;BME280;31254;51.680;5.394;2024-02-23T03:38:50;98413.19;;;4.63;97.73
45523;BME280;31254;51.680;5.394;2024-02-23T03:41:25;98144.53;;;2.64;97.15
45523;BME280;31254;51.680;5.394;2024-02-23T03:43:52;98048.75;;;2.29;97.13
45523;BME280;31254;51.680;5.394;2024-02-23T03:46:19;98810.34;;;6.85;97.64
45523;BME280;31254;51.680;5.394;2024-02-23T03:48:48;98227.59;;;3.43;97.36
45523;BME280;31254;51.680;5.394;2024-02-23T03:51:15;98181.06;;;2.91;97.21
45523;BME280;31254;51.680;5.394;2024-02-23T03:53:42;98178.00;;;2.70;97.26
45523;BME280;31254;51.680;5.394;2024-02-23T03:56:12;98618.63;;;5.52;97.41
45523;BME280;31254;51.680;5.394;2024-02-23T03:58:41;98472.22;;;4.90;97.09
45523;BME280;31254;51.680;5.394;2024-02-23T04:01:14;98215.94;;;3.01;97.12
45523;BME280;31254;51.680;5.394;2024-02-23T04:03:50;99068.97;;;8.27;97.93
45523;BME280;31254;51.680;5.394;2024-02-23T04:06:20;98686.50;;;6.14;97.28
45523;BME280;31254;51.680;5.394;2024-02-23T04:08:47;98227.88;;;2.90;96.96
45523;BME280;31254;51.680;5.394;2024-02-23T04:11:19;98664.72;;;5.83;97.28
45523;BME280;31254;51.680;5.394;2024-02-23T04:13:51;98940.19;;;7.59;97.49
45523;BME280;31254;51.680;5.394;2024-02-23T04:16:22;98542.63;;;5.05;96.94
45523;BME280;31254;51.680;5.394;2024-02-23T04:18:52;98114.75;;;2.66;96.96
45523;BME280;31254;51.680;5.394;2024-02-23T04:21:21;98528.31;;;4.72;96.98
45523;BME280;31254;51.680;5.394;2024-02-23T04:23:50;98091.66;;;2.47;96.86
45523;BME280;31254;51.680;5.394;2024-02-23T04:26:17;98164.41;;;2.80;96.91
45523;BME280;31254;51.680;5.394;2024-02-23T04:28:44;98067.00;;;2.00;96.72
45523;BME280;31254;51.680;5.394;2024-02-23T04:31:16;98145.19;;;2.66;96.62
45523;BME280;31254;51.680;5.394;2024-02-23T04:33:44;98248.44;;;3.00;96.60
45523;BME280;31254;51.680;5.394;2024-02-23T04:36:11;98351.78;;;3.50;96.89
45523;BME280;31254;51.680;5.394;2024-02-23T04:38:38;98141.41;;;2.34;96.81
45523;BME280;31254;51.680;5.394;2024-02-23T04:41:09;98225.16;;;2.82;96.92
45523;BME280;31254;51.680;5.394;2024-02-23T04:43:41;98485.59;;;4.67;97.13
45523;BME280;31254;51.680;5.394;2024-02-23T04:46:08;99060.69;;;8.20;97.71
45523;BME280;31254;51.680;5.394;2024-02-23T04:48:35;98085.56;;;2.28;96.73
45523;BME280;31254;51.680;5.394;2024-02-23T04:51:08;98731.47;;;6.23;97.07
45523;BME280;31254;51.680;5.394;2024-02-23T04:53:39;98223.16;;;2.92;97.14
45523;BME280;31254;51.680;5.394;2024-02-23T04:56:18;98718.00;;;5.74;97.41
45523;BME280;31254;51.680;5.394;2024-02-23T04:58:57;98456.91;;;4.25;97.31
45523;BME280;31254;51.680;5.394;2024-02-23T05:01:39;98560.34;;;5.24;97.29
45523;BME280;31254;51.680;5.394;2024-02-23T05:04:06;98171.91;;;2.43;96.70
45523;BME280;31254;51.680;5.394;2024-02-23T05:06:37;98463.16;;;4.58;97.20
45523;BME280;31254;51.680;5.394;2024-02-23T05:09:07;98355.84;;;3.62;97.04
45523;BME280;31254;51.680;5.394;2024-02-23T05:11:41;98210.47;;;2.68;96.88
45523;BME280;31254;51.680;5.394;2024-02-23T05:14:12;98158.81;;;2.65;96.52
45523;BME280;31254;51.680;5.394;2024-02-23T05:16:45;98896.78;;;7.27;96.97
45523;BME280;31254;51.680;5.394;2024-02-23T05:19:14;98028.38;;;1.59;96.19
45523;BME280;31254;51.680;5.394;2024-02-23T05:21:45;99075.59;;;8.33;97.47
45523;BME280;31254;51.680;5.394;2024-02-23T05:27:16;98273.59;;;3.41;96.65
45523;BME280;31254;51.680;5.394;2024-02-23T05:33:06;98645.97;;;5.65;96.95
45523;BME280;31254;51.680;5.394;2024-02-23T05:35:41;98473.13;;;4.50;96.44
45523;BME280;31254;51.680;5.394;2024-02-23T05:38:14;98714.56;;;6.21;97.14
45523;BME280;31254;51.680;5.394;2024-02-23T05:40:42;98731.13;;;6.27;96.71
45523;BME280;31254;51.680;5.394;2024-02-23T05:43:09;99066.91;;;8.37;97.08
45523;BME280;31254;51.680;5.394;2024-02-23T05:45:36;98607.97;;;5.50;96.69
45523;BME280;31254;51.680;5.394;2024-02-23T05:48:05;98896.22;;;7.40;96.58
45523;BME280;31254;51.680;5.394;2024-02-23T05:50:33;98979.16;;;7.66;96.59
45523;BME280;31254;51.680;5.394;2024-02-23T05:53:00;98670.78;;;5.93;96.27
45523;BME280;31254;51.680;5.394;2024-02-23T05:55:31;98543.66;;;5.12;96.41
45523;BME280;31254;51.680;5.394;2024-02-23T05:58:01;98135.41;;;2.57;95.75
45523;BME280;31254;51.680;5.394;2024-02-23T06:00:33;98589.88;;;5.50;96.21
45523;BME280;31254;51.680;5.394;2024-02-23T06:03:03;99057.53;;;8.40;96.30
45523;BME280;31254;51.680;5.394;2024-02-23T06:05:33;98510.22;;;4.89;95.74
45523;BME280;31254;51.680;5.394;2024-02-23T06:08:02;98808.56;;;6.61;96.12
45523;BME280;31254;51.680;5.394;2024-02-23T06:10:29;99100.00;;;8.41;96.28
45523;BME280;31254;51.680;5.394;2024-02-23T06:12:56;98407.31;;;4.43;95.46
45523;BME280;31254;51.680;5.394;2024-02-23T06:15:37;98362.09;;;3.79;95.53
45523;BME280;31254;51.680;5.394;2024-02-23T06:18:30;98136.31;;;2.74;95.35
45523;BME280;31254;51.680;5.394;2024-02-23T06:21:01;98438.00;;;4.58;95.26
45523;BME280;31254;51.680;5.394;2024-02-23T06:23:28;98272.59;;;3.34;95.60
45523;BME280;31254;51.680;5.394;2024-02-23T06:25:55;99059.78;;;8.36;96.11
45523;BME280;31254;51.680;5.394;2024-02-23T06:28:22;98845.53;;;6.45;95.87
45523;BME280;31254;51.680;5.394;2024-02-23T06:30:49;98878.09;;;6.85;96.00
45523;BME280;31254;51.680;5.394;2024-02-23T06:33:16;98196.09;;;3.02;95.25
45523;BME280;31254;51.680;5.394;2024-02-23T06:35:43;98997.06;;;7.52;95.99
45523;BME280;31254;51.680;5.394;2024-02-23T06:38:10;98960.22;;;7.58;96.21
45523;BME280;31254;51.680;5.394;2024-02-23T06:40:36;99055.22;;;7.97;95.86
45523;BME280;31254;51.680;5.394;2024-02-23T06:43:17;98065.03;;;2.19;95.23
45523;BME280;31254;51.680;5.394;2024-02-23T06:45:48;98963.44;;;7.61;96.01
45523;BME280;31254;51.680;5.394;2024-02-23T06:48:15;98913.38;;;7.32;96.10
45523;BME280;31254;51.680;5.394;2024-02-23T06:50:44;98240.56;;;3.23;95.24
45523;BME280;31254;51.680;5.394;2024-02-23T06:53:17;98763.66;;;5.94;95.76
45523;BME280;31254;51.680;5.394;2024-02-23T06:55:43;98506.38;;;4.50;95.61
45523;BME280;31254;51.680;5.394;2024-02-23T06:58:11;98141.56;;;2.33;95.46
45523;BME280;31254;51.680;5.394;2024-02-23T07:00:40;98724.25;;;5.83;96.00
45523;BME280;31254;51.680;5.394;2024-02-23T07:03:09;99074.22;;;7.97;96.28
45523;BME280;31254;51.680;5.394;2024-02-23T07:05:36;99075.00;;;8.14;95.30
45523;BME280;31254;51.680;5.394;2024-02-23T07:08:03;99020.31;;;7.86;95.54
45523;BME280;31254;51.680;5.394;2024-02-23T07:10:30;99065.81;;;8.15;94.96
45523;BME280;31254;51.680;5.394;2024-02-23T07:12:56;98667.28;;;5.60;94.66
45523;BME280;31254;51.680;5.394;2024-02-23T07:15:24;98935.41;;;7.29;94.60
45523;BME280;31254;51.680;5.394;2024-02-23T07:17:52;99072.75;;;8.18;94.90
45523;BME280;31254;51.680;5.394;2024-02-23T07:20:19;98816.69;;;6.61;94.42
45523;BME280;31254;51.680;5.394;2024-02-23T07:22:46;98862.31;;;6.97;94.47
45523;BME280;31254;51.680;5.394;2024-02-23T07:25:16;99020.41;;;8.01;94.88
45523;BME280;31254;51.680;5.394;2024-02-23T07:27:43;98970.41;;;7.56;94.93
45523;BME280;31254;51.680;5.394;2024-02-23T07:30:11;98717.47;;;5.87;94.48
45523;BME280;31254;51.680;5.394;2024-02-23T07:32:37;98969.94;;;7.44;95.12
45523;BME280;31254;51.680;5.394;2024-02-23T07:35:05;98860.63;;;6.95;95.21
45523;BME280;31254;51.680;5.394;2024-02-23T07:37:31;99051.97;;;8.02;95.54
45523;BME280;31254;51.680;5.394;2024-02-23T07:39:58;98943.66;;;7.44;95.16
45523;BME280;31254;51.680;5.394;2024-02-23T07:42:24;98787.75;;;6.61;95.27
45523;BME280;31254;51.680;5.394;2024-02-23T07:44:51;98723.72;;;5.96;95.00
45523;BME280;31254;51.680;5.394;2024-02-23T07:47:17;98884.91;;;7.20;95.13
45523;BME280;31254;51.680;5.394;2024-02-23T07:49:44;98704.78;;;6.04;94.91
45523;BME280;31254;51.680;5.394;2024-02-23T07:52:11;98949.09;;;7.76;94.96
45523;BME280;31254;51.680;5.394;2024-02-23T07:54:37;99050.78;;;8.36;95.30
45523;BME280;31254;51.680;5.394;2024-02-23T07:57:04;98932.19;;;7.65;95.20
45523;BME280;31254;51.680;5.394;2024-02-23T07:59:34;98876.88;;;7.35;95.02
45523;BME280;31254;51.680;5.394;2024-02-23T08:02:01;98973.88;;;8.04;94.98
45523;BME280;31254;51.680;5.394;2024-02-23T08:04:28;98528.47;;;4.95;94.28
45523;BME280;31254;51.680;5.394;2024-02-23T08:06:54;99037.50;;;8.41;95.11
45523;BME280;31254;51.680;5.394;2024-02-23T08:09:21;98600.31;;;5.70;94.17
45523;BME280;31254;51.680;5.394;2024-02-23T08:11:49;98960.78;;;8.08;94.93
45523;BME280;31254;51.680;5.394;2024-02-23T08:14:15;98963.38;;;8.01;94.51
45523;BME280;31254;51.680;5.394;2024-02-23T08:16:42;98899.28;;;7.68;94.18
45523;BME280;31254;51.680;5.394;2024-02-23T08:19:09;98871.09;;;7.38;94.35
45523;BME280;31254;51.680;5.394;2024-02-23T08:21:35;99025.06;;;8.47;94.46
45523;BME280;31254;51.680;5.394;2024-02-23T08:24:02;99043.91;;;8.48;94.43
45523;BME280;31254;51.680;5.394;2024-02-23T08:26:29;99037.66;;;8.48;94.04
45523;BME280;31254;51.680;5.394;2024-02-23T08:28:56;98960.31;;;8.04;94.24
45523;BME280;31254;51.680;5.394;2024-02-23T08:31:23;98901.03;;;7.61;94.23
45523;BME280;31254;51.680;5.394;2024-02-23T08:33:56;98990.97;;;8.13;93.96
45523;BME280;31254;51.680;5.394;2024-02-23T08:36:23;98965.25;;;8.00;93.86
45523;BME280;31254;51.680;5.394;2024-02-23T08:38:50;98902.81;;;7.69;94.06
45523;BME280;31254;51.680;5.394;2024-02-23T08:41:16;98885.41;;;7.63;93.88
45523;BME280;31254;51.680;5.394;2024-02-23T08:43:43;99022.34;;;8.47;93.69
45523;BME280;31254;51.680;5.394;2024-02-23T08:46:09;98902.03;;;7.60;93.59
45523;BME280;31254;51.680;5.394;2024-02-23T08:48:36;98876.81;;;7.52;93.92
45523;BME280;31254;51.680;5.394;2024-02-23T08:51:03;99001.19;;;8.34;93.88
45523;BME280;31254;51.680;5.394;2024-02-23T08:53:30;98965.56;;;8.05;93.79
45523;BME280;31254;51.680;5.394;2024-02-23T08:55:57;99032.25;;;8.39;93.79
45523;BME280;31254;51.680;5.394;2024-02-23T08:58:24;98975.38;;;8.06;93.80
45523;BME280;31254;51.680;5.394;2024-02-23T09:00:50;98871.19;;;7.53;93.87
45523;BME280;31254;51.680;5.394;2024-02-23T09:03:17;99030.50;;;8.47;94.20
45523;BME280;31254;51.680;5.394;2024-02-23T09:05:43;98997.34;;;8.28;93.95
45523;BME280;31254;51.680;5.394;2024-02-23T09:08:10;99034.59;;;8.42;93.67
45523;BME280;31254;51.680;5.394;2024-02-23T09:10:37;98934.63;;;7.83;93.97
45523;BME280;31254;51.680;5.394;2024-02-23T09:13:03;98864.84;;;7.38;93.91
45523;BME280;31254;51.680;5.394;2024-02-23T09:15:31;98916.50;;;7.76;93.69
45523;BME280;31254;51.680;5.394;2024-02-23T09:17:57;99029.03;;;8.44;93.80
45523;BME280;31254;51.680;5.394;2024-02-23T09:20:24;98989.13;;;8.13;93.87
45523;BME280;31254;51.680;5.394;2024-02-23T09:22:50;98979.81;;;8.08;93.98
45523;BME280;31254;51.680;5.394;2024-02-23T09:25:18;99052.75;;;8.42;94.14
45523;BME280;31254;51.680;5.394;2024-02-23T09:27:45;99001.91;;;8.28;94.06
45523;BME280;31254;51.680;5.394;2024-02-23T09:30:12;99031.75;;;8.44;94.34
45523;BME280;31254;51.680;5.394;2024-02-23T09:32:39;98990.06;;;8.20;94.19
45523;BME280;31254;51.680;5.394;2024-02-23T09:35:06;98967.16;;;7.92;94.12
45523;BME280;31254;51.680;5.394;2024-02-23T09:37:33;98760.41;;;6.79;93.46
45523;BME280;31254;51.680;5.394;2024-02-23T09:40:00;98888.50;;;7.52;94.39
45523;BME280;31254;51.680;5.394;2024-02-23T09:42:28;98936.38;;;7.76;94.00
45523;BME280;31254;51.680;5.394;2024-02-23T09:44:59;98989.78;;;7.84;94.23
45523;BME280;31254;51.680;5.394;2024-02-23T09:47:27;98774.81;;;6.71;94.26
45523;BME280;31254;51.680;5.394;2024-02-23T09:49:55;99049.88;;;8.44;94.69
45523;BME280;31254;51.680;5.394;2024-02-23T09:52:23;99061.63;;;8.44;94.10
45523;BME280;31254;51.680;5.394;2024-02-23T09:54:49;98997.63;;;8.10;94.23
45523;BME280;31254;51.680;5.394;2024-02-23T09:57:16;98519.69;;;4.93;94.22
45523;BME280;31254;51.680;5.394;2024-02-23T09:59:46;98820.00;;;6.87;94.74
45523;BME280;31254;51.680;5.394;2024-02-23T10:02:16;99060.88;;;8.50;94.92
45523;BME280;31254;51.680;5.394;2024-02-23T10:04:43;98892.28;;;7.43;94.33
45523;BME280;31254;51.680;5.394;2024-02-23T10:07:14;99082.44;;;8.52;94.76
45523;BME280;31254;51.680;5.394;2024-02-23T10:09:41;98831.13;;;7.01;94.46
45523;BME280;31254;51.680;5.394;2024-02-23T10:12:08;98927.06;;;7.71;94.55
45523;BME280;31254;51.680;5.394;2024-02-23T10:14:35;99067.50;;;8.56;94.57
45523;BME280;31254;51.680;5.394;2024-02-23T10:17:02;98915.56;;;7.68;94.52
45523;BME280;31254;51.680;5.394;2024-02-23T10:19:29;99028.00;;;8.37;94.10
45523;BME280;31254;51.680;5.394;2024-02-23T10:21:56;98830.03;;;7.18;93.99
45523;BME280;31254;51.680;5.394;2024-02-23T10:24:23;98820.56;;;7.06;93.86
45523;BME280;31254;51.680;5.394;2024-02-23T10:26:51;99082.72;;;8.65;93.88
45523;BME280;31254;51.680;5.394;2024-02-23T10:29:18;98702.66;;;6.39;93.45
45523;BME280;31254;51.680;5.394;2024-02-23T10:31:48;98853.50;;;7.34;93.25
45523;BME280;31254;51.680;5.394;2024-02-23T10:34:19;99074.03;;;8.70;93.48
45523;BME280;31254;51.680;5.394;2024-02-23T10:36:46;98738.47;;;6.57;93.06
45523;BME280;31254;51.680;5.394;2024-02-23T10:39:18;99085.75;;;8.70;93.43
45523;BME280;31254;51.680;5.394;2024-02-23T10:42:03;99053.63;;;8.42;93.72
45523;BME280;31254;51.680;5.394;2024-02-23T10:44:30;99050.03;;;8.42;93.45
45523;BME280;31254;51.680;5.394;2024-02-23T10:46:58;99122.56;;;8.73;93.94
45523;BME280;31254;51.680;5.394;2024-02-23T10:49:28;99108.97;;;8.73;93.71
45523;BME280;31254;51.680;5.394;2024-02-23T10:51:56;98553.44;;;5.22;93.37
45523;BME280;31254;51.680;5.394;2024-02-23T10:54:23;98996.63;;;8.03;93.77
45523;BME280;31254;51.680;5.394;2024-02-23T10:56:50;98882.88;;;7.22;94.01
45523;BME280;31254;51.680;5.394;2024-02-23T10:59:18;99124.28;;;8.74;94.32
45523;BME280;31254;51.680;5.394;2024-02-23T11:01:50;99081.16;;;8.39;94.38
45523;BME280;31254;51.680;5.394;2024-02-23T11:04:19;99059.94;;;8.35;94.51
45523;BME280;31254;51.680;5.394;2024-02-23T11:06:54;98647.31;;;5.77;94.21
45523;BME280;31254;51.680;5.394;2024-02-23T11:09:22;99060.97;;;8.34;94.46
45523;BME280;31254;51.680;5.394;2024-02-23T11:11:56;99024.72;;;8.18;93.90
45523;BME280;31254;51.680;5.394;2024-02-23T11:14:38;98928.00;;;7.55;93.25
45523;BME280;31254;51.680;5.394;2024-02-23T11:17:05;99115.78;;;8.77;93.41
45523;BME280;31254;51.680;5.394;2024-02-23T11:19:39;99108.81;;;8.74;93.59
45523;BME280;31254;51.680;5.394;2024-02-23T11:22:09;99034.19;;;8.22;93.71
45523;BME280;31254;51.680;5.394;2024-02-23T11:24:49;98936.78;;;7.65;93.46
45523;BME280;31254;51.680;5.394;2024-02-23T11:27:23;99132.19;;;8.84;93.88
45523;BME280;31254;51.680;5.394;2024-02-23T11:30:02;99030.28;;;8.25;94.04
45523;BME280;31254;51.680;5.394;2024-02-23T11:32:40;99022.41;;;8.07;93.67
45523;BME280;31254;51.680;5.394;2024-02-23T11:35:10;98999.00;;;8.06;93.40
45523;BME280;31254;51.680;5.394;2024-02-23T11:37:55;99132.88;;;8.86;93.47
45523;BME280;31254;51.680;5.394;2024-02-23T11:40:30;99127.25;;;8.87;94.34
45523;BME280;31254;51.680;5.394;2024-02-23T11:42:58;98801.72;;;6.81;93.66
45523;BME280;31254;51.680;5.394;2024-02-23T11:45:30;99061.94;;;8.41;94.42
45523;BME280;31254;51.680;5.394;2024-02-23T11:47:57;99091.28;;;8.54;94.20
45523;BME280;31254;51.680;5.394;2024-02-23T11:50:25;99067.44;;;8.33;94.53
45523;BME280;31254;51.680;5.394;2024-02-23T11:52:53;99138.13;;;8.87;94.27
45523;BME280;31254;51.680;5.394;2024-02-23T11:55:20;98838.25;;;7.02;93.74
45523;BME280;31254;51.680;5.394;2024-02-23T11:57:49;99120.91;;;8.72;94.38
45523;BME280;31254;51.680;5.394;2024-02-23T12:00:27;98983.97;;;7.87;93.99
45523;BME280;31254;51.680;5.394;2024-02-23T12:02:55;99050.78;;;8.36;94.30
45523;BME280;31254;51.680;5.394;2024-02-23T12:05:22;98429.41;;;4.30;93.15
45523;BME280;31254;51.680;5.394;2024-02-23T12:07:49;98988.94;;;7.83;92.97
45523;BME280;31254;51.680;5.394;2024-02-23T12:10:15;98927.50;;;7.51;92.52
45523;BME280;31254;51.680;5.394;2024-02-23T12:12:42;98982.31;;;7.86;92.41
45523;BME280;31254;51.680;5.394;2024-02-23T12:15:09;99126.47;;;8.78;92.39
45523;BME280;31254;51.680;5.394;2024-02-23T12:17:36;99158.97;;;8.95;92.42
45523;BME280;31254;51.680;5.394;2024-02-23T12:20:04;99155.06;;;8.98;92.76
45523;BME280;31254;51.680;5.394;2024-02-23T12:22:34;98941.69;;;7.69;92.41
45523;BME280;31254;51.680;5.394;2024-02-23T12:25:00;98962.66;;;7.84;91.95
45523;BME280;31254;51.680;5.394;2024-02-23T12:27:28;99180.88;;;9.02;92.15
45523;BME280;31254;51.680;5.394;2024-02-23T12:29:55;98940.63;;;7.71;92.11
45523;BME280;31254;51.680;5.394;2024-02-23T12:32:22;99161.47;;;9.05;92.00
45523;BME280;31254;51.680;5.394;2024-02-23T12:34:49;99035.53;;;8.27;92.17
45523;BME280;31254;51.680;5.394;2024-02-23T12:37:19;99016.50;;;8.03;91.80
45523;BME280;31254;51.680;5.394;2024-02-23T12:39:48;98990.53;;;8.01;91.68
45523;BME280;31254;51.680;5.394;2024-02-23T12:42:14;98958.63;;;7.72;91.94
45523;BME280;31254;51.680;5.394;2024-02-23T12:44:43;98848.00;;;7.11;91.81
45523;BME280;31254;51.680;5.394;2024-02-23T12:47:10;99207.47;;;9.14;92.11
45523;BME280;31254;51.680;5.394;2024-02-23T12:49:36;99155.91;;;8.98;92.30
45523;BME280;31254;51.680;5.394;2024-02-23T12:52:04;98804.03;;;6.92;92.32
45523;BME280;31254;51.680;5.394;2024-02-23T12:54:30;98952.63;;;7.84;92.33
45523;BME280;31254;51.680;5.394;2024-02-23T12:56:57;98902.38;;;7.57;92.18
45523;BME280;31254;51.680;5.394;2024-02-23T12:59:23;99179.91;;;9.18;92.63
45523;BME280;31254;51.680;5.394;2024-02-23T13:01:50;99106.44;;;8.71;92.67
45523;BME280;31254;51.680;5.394;2024-02-23T13:04:18;98975.13;;;7.93;92.72
45523;BME280;31254;51.680;5.394;2024-02-23T13:06:45;99084.44;;;8.58;92.51
45523;BME280;31254;51.680;5.394;2024-02-23T13:09:13;99224.09;;;9.20;92.33
45523;BME280;31254;51.680;5.394;2024-02-23T13:11:41;98927.78;;;7.64;92.58
45523;BME280;31254;51.680;5.394;2024-02-23T13:14:08;99145.31;;;9.03;93.08
45523;BME280;31254;51.680;5.394;2024-02-23T13:16:36;98999.41;;;8.18;92.43
45523;BME280;31254;51.680;5.394;2024-02-23T13:19:02;99179.91;;;9.18;92.39
45523;BME280;31254;51.680;5.394;2024-02-23T13:21:29;99115.09;;;8.75;91.78
45523;BME280;31254;51.680;5.394;2024-02-23T13:23:56;99067.00;;;8.52;91.48
45523;BME280;31254;51.680;5.394;2024-02-23T13:26:22;99087.47;;;8.63;91.16
45523;BME280;31254;51.680;5.394;2024-02-23T13:28:49;99078.06;;;8.51;91.09
45523;BME280;31254;51.680;5.394;2024-02-23T13:31:15;98927.75;;;7.73;91.64
45523;BME280;31254;51.680;5.394;2024-02-23T13:33:43;99048.06;;;8.36;91.32
45523;BME280;31254;51.680;5.394;2024-02-23T13:36:11;98665.00;;;6.13;91.06